Portada
METAR-TAF:

METAR-TAF

Aeroports :

Anniston, Alabama, Estats Units d'Amèrica

latitud: 33-35-26N, longitud: 085-50-51W, altitud: 186 m

Observació

L'informe es va fer fa 47 minuts, a les 14:53 UTC
Vent 8 kt del Nord-Oest amb ràfegues de 19 kt
Temperatura 11°C
Humitat 54%
Pressió 1016 hPa
Visibilitat: 16.1 km
Cel clar

METAR: KANB 011453Z AUTO 32008G19KT 10SM CLR 11/02 A3001 RMK AO2 SLP165 T01110022 51013

Hora: 10:40 (15:40 UTC)

Pronòstic

L'informe es va fer fa 4 hores i 20 minuts, a les 11:20 UTC
Pronòstic vàlid del 01 a les 12 UTC al 02 a les 12 UTC
Vent 5 kt del Oest/Sud-Oest
Visibilitat: 10 km
Cel clar
A partir de les 01 a les 1400 UTC
Vent 12 kt del Nord/Nord-Oest amb ràfegues de 18 kt
Visibilitat: 10 km
Cel clar
A partir de les 02 a les 0000 UTC
Vent 5 kt del Nord-Oest
Visibilitat: 10 km
Núvols disperses a una alçada de 25000 ft

TAF: KANB 011120Z 0112/0212 25005KT P6SM SKC FM011400 34012G18KT P6SM SKC FM020000 32005KT P6SM SCT250

Observacions i pronòstics meteorològics de més de 4000 aeroports (METAR i TAF).

Les estacions disponibles són els punts grocs i vermells al mapa.

Posi el ratolí al punt desitjat per veure el nom de l'estació.

Feu clic per veure les observacions i els pronòstics meteorològics.

Per canviar el mapa: feu clic els botons verds amb una creu de color negre per apropar; al botó verd amb un guió per allunyar la imatge; o en les fletxes verdes per a mapes adjacents.


METAR-TAF: